sensor_id;sensor_type;location;lat;lon;timestamp;P1;durP1;ratioP1;P2;durP2;ratioP2
3677;SDS011;1855;50.934;6.958;2024-03-06T05:30:58;4.40;;;4.00;;
3677;SDS011;1855;50.934;6.958;2024-03-06T05:33:26;4.50;;;4.10;;
3677;SDS011;1855;50.934;6.958;2024-03-06T05:35:53;4.53;;;4.00;;
3677;SDS011;1855;50.934;6.958;2024-03-06T05:38:20;5.38;;;4.47;;
3677;SDS011;1855;50.934;6.958;2024-03-06T05:40:48;5.70;;;4.10;;
3677;SDS011;1855;50.934;6.958;2024-03-06T05:43:14;5.05;;;4.20;;
3677;SDS011;1855;50.934;6.958;2024-03-06T05:45:41;5.35;;;4.10;;
3677;SDS011;1855;50.934;6.958;2024-03-06T05:48:11;5.00;;;4.60;;
3677;SDS011;1855;50.934;6.958;2024-03-06T05:50:38;5.40;;;4.53;;
3677;SDS011;1855;50.934;6.958;2024-03-06T05:53:04;5.07;;;4.53;;
3677;SDS011;1855;50.934;6.958;2024-03-06T05:55:31;5.72;;;4.97;;
3677;SDS011;1855;50.934;6.958;2024-03-06T05:57:58;5.20;;;4.70;;
3677;SDS011;1855;50.934;6.958;2024-03-06T06:00:25;5.50;;;4.50;;
3677;SDS011;1855;50.934;6.958;2024-03-06T06:02:51;6.20;;;4.70;;
3677;SDS011;1855;50.934;6.958;2024-03-06T06:05:19;5.63;;;4.45;;
3677;SDS011;1855;50.934;6.958;2024-03-06T06:07:47;4.60;;;4.20;;
3677;SDS011;1855;50.934;6.958;2024-03-06T06:10:15;5.30;;;4.80;;
3677;SDS011;1855;50.934;6.958;2024-03-06T06:12:41;5.65;;;5.10;;
3677;SDS011;1855;50.934;6.958;2024-03-06T06:15:09;6.18;;;4.88;;
3677;SDS011;1855;50.934;6.958;2024-03-06T06:17:36;6.10;;;5.20;;
3677;SDS011;1855;50.934;6.958;2024-03-06T06:20:04;6.83;;;5.13;;
3677;SDS011;1855;50.934;6.958;2024-03-06T06:22:35;6.25;;;5.18;;
3677;SDS011;1855;50.934;6.958;2024-03-06T06:25:03;5.35;;;4.80;;
3677;SDS011;1855;50.934;6.958;2024-03-06T06:27:34;6.25;;;4.70;;
3677;SDS011;1855;50.934;6.958;2024-03-06T06:30:01;7.97;;;6.82;;
3677;SDS011;1855;50.934;6.958;2024-03-06T06:32:28;6.20;;;5.57;;
3677;SDS011;1855;50.934;6.958;2024-03-06T06:34:56;6.65;;;5.47;;
3677;SDS011;1855;50.934;6.958;2024-03-06T06:37:23;5.95;;;5.35;;
3677;SDS011;1855;50.934;6.958;2024-03-06T06:39:51;5.93;;;5.32;;
3677;SDS011;1855;50.934;6.958;2024-03-06T06:42:18;6.20;;;5.60;;
3677;SDS011;1855;50.934;6.958;2024-03-06T06:44:45;6.20;;;5.60;;
3677;SDS011;1855;50.934;6.958;2024-03-06T06:47:12;6.10;;;5.50;;
3677;SDS011;1855;50.934;6.958;2024-03-06T06:49:38;6.68;;;5.38;;
3677;SDS011;1855;50.934;6.958;2024-03-06T06:52:05;6.25;;;5.65;;
3677;SDS011;1855;50.934;6.958;2024-03-06T06:54:32;5.45;;;4.85;;
3677;SDS011;1855;50.934;6.958;2024-03-06T06:57:00;5.90;;;5.30;;
3677;SDS011;1855;50.934;6.958;2024-03-06T06:59:28;5.70;;;5.10;;
3677;SDS011;1855;50.934;6.958;2024-03-06T07:01:55;6.45;;;5.32;;
3677;SDS011;1855;50.934;6.958;2024-03-06T07:04:21;5.80;;;5.20;;
3677;SDS011;1855;50.934;6.958;2024-03-06T07:06:49;5.68;;;5.15;;
3677;SDS011;1855;50.934;6.958;2024-03-06T07:09:16;5.70;;;5.10;;
3677;SDS011;1855;50.934;6.958;2024-03-06T07:11:43;6.75;;;5.57;;
3677;SDS011;1855;50.934;6.958;2024-03-06T07:14:11;5.50;;;5.00;;
3677;SDS011;1855;50.934;6.958;2024-03-06T07:16:41;5.30;;;4.80;;
3677;SDS011;1855;50.934;6.958;2024-03-06T07:19:08;4.95;;;4.55;;
3677;SDS011;1855;50.934;6.958;2024-03-06T07:21:35;5.05;;;4.10;;
3677;SDS011;1855;50.934;6.958;2024-03-06T07:24:02;4.80;;;4.40;;
3677;SDS011;1855;50.934;6.958;2024-03-06T07:26:29;7.90;;;5.20;;
3677;SDS011;1855;50.934;6.958;2024-03-06T07:28:58;9.50;;;6.15;;
3677;SDS011;1855;50.934;6.958;2024-03-06T07:31:26;8.30;;;5.65;;
3677;SDS011;1855;50.934;6.958;2024-03-06T07:33:53;5.47;;;4.97;;
3677;SDS011;1855;50.934;6.958;2024-03-06T07:36:20;5.68;;;5.20;;
3677;SDS011;1855;50.934;6.958;2024-03-06T07:38:47;6.03;;;5.10;;
3677;SDS011;1855;50.934;6.958;2024-03-06T07:41:14;7.57;;;5.50;;
3677;SDS011;1855;50.934;6.958;2024-03-06T07:43:40;5.80;;;5.07;;
3677;SDS011;1855;50.934;6.958;2024-03-06T07:46:07;8.27;;;6.47;;
3677;SDS011;1855;50.934;6.958;2024-03-06T07:48:37;9.20;;;7.05;;
3677;SDS011;1855;50.934;6.958;2024-03-06T07:51:04;8.52;;;7.40;;
3677;SDS011;1855;50.934;6.958;2024-03-06T07:53:31;7.70;;;6.90;;
3677;SDS011;1855;50.934;6.958;2024-03-06T07:55:57;8.53;;;7.17;;
3677;SDS011;1855;50.934;6.958;2024-03-06T07:58:24;8.50;;;7.60;;
3677;SDS011;1855;50.934;6.958;2024-03-06T08:00:51;10.20;;;8.20;;
3677;SDS011;1855;50.934;6.958;2024-03-06T08:03:20;12.03;;;9.30;;
3677;SDS011;1855;50.934;6.958;2024-03-06T08:05:49;11.00;;;9.13;;
3677;SDS011;1855;50.934;6.958;2024-03-06T08:08:17;9.60;;;8.70;;
3677;SDS011;1855;50.934;6.958;2024-03-06T08:10:44;9.20;;;8.30;;
3677;SDS011;1855;50.934;6.958;2024-03-06T08:13:11;11.13;;;9.20;;
3677;SDS011;1855;50.934;6.958;2024-03-06T08:15:38;9.85;;;8.60;;
3677;SDS011;1855;50.934;6.958;2024-03-06T08:18:05;9.93;;;8.93;;
3677;SDS011;1855;50.934;6.958;2024-03-06T08:20:32;10.13;;;9.13;;
3677;SDS011;1855;50.934;6.958;2024-03-06T08:23:00;9.00;;;8.10;;
3677;SDS011;1855;50.934;6.958;2024-03-06T08:25:27;10.27;;;9.27;;
3677;SDS011;1855;50.934;6.958;2024-03-06T08:27:53;10.73;;;9.73;;
3677;SDS011;1855;50.934;6.958;2024-03-06T08:30:20;11.50;;;10.23;;
3677;SDS011;1855;50.934;6.958;2024-03-06T08:32:47;10.13;;;9.13;;
3677;SDS011;1855;50.934;6.958;2024-03-06T08:35:13;10.67;;;9.57;;
3677;SDS011;1855;50.934;6.958;2024-03-06T08:37:40;10.48;;;9.38;;
3677;SDS011;1855;50.934;6.958;2024-03-06T08:40:09;10.70;;;9.60;;
3677;SDS011;1855;50.934;6.958;2024-03-06T08:42:39;12.25;;;10.00;;
3677;SDS011;1855;50.934;6.958;2024-03-06T08:45:06;14.48;;;10.50;;
3677;SDS011;1855;50.934;6.958;2024-03-06T08:47:34;10.00;;;8.40;;
3677;SDS011;1855;50.934;6.958;2024-03-06T08:50:00;10.35;;;9.05;;
3677;SDS011;1855;50.934;6.958;2024-03-06T08:52:28;10.77;;;9.00;;
3677;SDS011;1855;50.934;6.958;2024-03-06T08:54:55;11.77;;;10.57;;
3677;SDS011;1855;50.934;6.958;2024-03-06T08:57:24;11.77;;;10.07;;
3677;SDS011;1855;50.934;6.958;2024-03-06T08:59:53;11.30;;;10.05;;
3677;SDS011;1855;50.934;6.958;2024-03-06T09:02:20;10.60;;;9.38;;
3677;SDS011;1855;50.934;6.958;2024-03-06T09:04:46;10.68;;;9.60;;
3677;SDS011;1855;50.934;6.958;2024-03-06T09:07:13;11.73;;;9.70;;
3677;SDS011;1855;50.934;6.958;2024-03-06T09:09:40;9.90;;;8.90;;
3677;SDS011;1855;50.934;6.958;2024-03-06T09:12:07;10.85;;;8.75;;
3677;SDS011;1855;50.934;6.958;2024-03-06T09:14:37;9.50;;;8.50;;
3677;SDS011;1855;50.934;6.958;2024-03-06T09:17:04;8.40;;;7.50;;
3677;SDS011;1855;50.934;6.958;2024-03-06T09:19:32;7.90;;;7.10;;
3677;SDS011;1855;50.934;6.958;2024-03-06T09:21:59;8.40;;;7.60;;
3677;SDS011;1855;50.934;6.958;2024-03-06T09:24:26;7.43;;;6.72;;
3677;SDS011;1855;50.934;6.958;2024-03-06T09:26:53;7.90;;;6.80;;
3677;SDS011;1855;50.934;6.958;2024-03-06T09:29:20;6.50;;;5.90;;
3677;SDS011;1855;50.934;6.958;2024-03-06T09:31:48;7.53;;;6.63;;
3677;SDS011;1855;50.934;6.958;2024-03-06T09:34:15;7.10;;;6.40;;
3677;SDS011;1855;50.934;6.958;2024-03-06T09:36:45;7.90;;;6.43;;
3677;SDS011;1855;50.934;6.958;2024-03-06T09:39:14;7.72;;;6.05;;
3677;SDS011;1855;50.934;6.958;2024-03-06T09:41:42;6.05;;;5.50;;
3677;SDS011;1855;50.934;6.958;2024-03-06T09:44:10;5.95;;;5.45;;
3677;SDS011;1855;50.934;6.958;2024-03-06T09:46:37;7.03;;;5.70;;
3677;SDS011;1855;50.934;6.958;2024-03-06T09:49:05;6.55;;;5.93;;
3677;SDS011;1855;50.934;6.958;2024-03-06T09:51:34;6.70;;;6.00;;
3677;SDS011;1855;50.934;6.958;2024-03-06T09:54:03;7.65;;;6.80;;
3677;SDS011;1855;50.934;6.958;2024-03-06T09:56:34;7.05;;;6.35;;
3677;SDS011;1855;50.934;6.958;2024-03-06T09:59:01;7.70;;;5.80;;
3677;SDS011;1855;50.934;6.958;2024-03-06T10:01:28;7.47;;;6.03;;
3677;SDS011;1855;50.934;6.958;2024-03-06T10:03:57;8.45;;;7.25;;
3677;SDS011;1855;50.934;6.958;2024-03-06T10:06:25;9.15;;;7.70;;
3677;SDS011;1855;50.934;6.958;2024-03-06T10:08:58;10.63;;;7.90;;
3677;SDS011;1855;50.934;6.958;2024-03-06T10:11:29;7.68;;;6.88;;
3677;SDS011;1855;50.934;6.958;2024-03-06T10:13:57;8.68;;;7.18;;
3677;SDS011;1855;50.934;6.958;2024-03-06T10:16:24;7.57;;;6.87;;
3677;SDS011;1855;50.934;6.958;2024-03-06T10:18:51;9.70;;;7.57;;
3677;SDS011;1855;50.934;6.958;2024-03-06T10:21:18;9.88;;;9.07;;
3677;SDS011;1855;50.934;6.958;2024-03-06T10:23:57;8.68;;;7.85;;
3677;SDS011;1855;50.934;6.958;2024-03-06T10:26:24;8.60;;;7.80;;
3677;SDS011;1855;50.934;6.958;2024-03-06T10:28:51;8.73;;;7.90;;
3677;SDS011;1855;50.934;6.958;2024-03-06T10:31:26;8.52;;;7.63;;
3677;SDS011;1855;50.934;6.958;2024-03-06T10:33:53;8.73;;;7.88;;
3677;SDS011;1855;50.934;6.958;2024-03-06T10:36:20;8.40;;;7.60;;
3677;SDS011;1855;50.934;6.958;2024-03-06T10:38:49;8.80;;;8.00;;
3677;SDS011;1855;50.934;6.958;2024-03-06T10:41:19;8.40;;;7.70;;
3677;SDS011;1855;50.934;6.958;2024-03-06T10:43:50;9.10;;;8.20;;
3677;SDS011;1855;50.934;6.958;2024-03-06T10:46:19;8.80;;;8.00;;
3677;SDS011;1855;50.934;6.958;2024-03-06T10:48:47;9.35;;;8.45;;
3677;SDS011;1855;50.934;6.958;2024-03-06T10:51:15;9.30;;;8.40;;
3677;SDS011;1855;50.934;6.958;2024-03-06T10:53:43;9.55;;;8.65;;
3677;SDS011;1855;50.934;6.958;2024-03-06T10:56:12;10.05;;;9.05;;
3677;SDS011;1855;50.934;6.958;2024-03-06T10:58:39;9.97;;;8.97;;
3677;SDS011;1855;50.934;6.958;2024-03-06T11:01:08;10.77;;;9.77;;
3677;SDS011;1855;50.934;6.958;2024-03-06T11:03:37;9.60;;;8.60;;
3677;SDS011;1855;50.934;6.958;2024-03-06T11:06:04;11.67;;;9.73;;
3677;SDS011;1855;50.934;6.958;2024-03-06T11:08:32;10.45;;;9.38;;
3677;SDS011;1855;50.934;6.958;2024-03-06T11:13:48;11.40;;;10.30;;
3677;SDS011;1855;50.934;6.958;2024-03-06T11:16:16;11.85;;;10.65;;
3677;SDS011;1855;50.934;6.958;2024-03-06T11:18:43;11.82;;;10.63;;
3677;SDS011;1855;50.934;6.958;2024-03-06T11:21:29;13.55;;;12.25;;
3677;SDS011;1855;50.934;6.958;2024-03-06T11:24:12;14.70;;;13.20;;
3677;SDS011;1855;50.934;6.958;2024-03-06T11:26:43;15.40;;;14.00;;
3677;SDS011;1855;50.934;6.958;2024-03-06T11:29:13;13.82;;;12.52;;
3677;SDS011;1855;50.934;6.958;2024-03-06T11:31:55;15.65;;;14.15;;
3677;SDS011;1855;50.934;6.958;2024-03-06T11:34:25;13.23;;;11.93;;
3677;SDS011;1855;50.934;6.958;2024-03-06T11:36:53;13.83;;;12.53;;
3677;SDS011;1855;50.934;6.958;2024-03-06T11:39:22;13.98;;;12.68;;
3677;SDS011;1855;50.934;6.958;2024-03-06T11:41:50;14.10;;;12.90;;
3677;SDS011;1855;50.934;6.958;2024-03-06T11:44:17;13.70;;;12.40;;
3677;SDS011;1855;50.934;6.958;2024-03-06T11:46:46;13.70;;;12.40;;
3677;SDS011;1855;50.934;6.958;2024-03-06T11:49:14;12.95;;;11.75;;
3677;SDS011;1855;50.934;6.958;2024-03-06T11:51:41;13.30;;;12.20;;
3677;SDS011;1855;50.934;6.958;2024-03-06T11:54:08;12.60;;;11.50;;
3677;SDS011;1855;50.934;6.958;2024-03-06T11:56:35;13.30;;;12.20;;
3677;SDS011;1855;50.934;6.958;2024-03-06T11:59:05;12.55;;;11.45;;
3677;SDS011;1855;50.934;6.958;2024-03-06T12:01:33;13.50;;;12.30;;
3677;SDS011;1855;50.934;6.958;2024-03-06T12:04:01;13.40;;;12.20;;
3677;SDS011;1855;50.934;6.958;2024-03-06T12:06:29;12.50;;;11.40;;
3677;SDS011;1855;50.934;6.958;2024-03-06T12:08:56;12.90;;;11.80;;
3677;SDS011;1855;50.934;6.958;2024-03-06T12:11:24;12.95;;;11.65;;
3677;SDS011;1855;50.934;6.958;2024-03-06T12:13:53;12.50;;;11.40;;
3677;SDS011;1855;50.934;6.958;2024-03-06T12:16:21;13.35;;;12.02;;
3677;SDS011;1855;50.934;6.958;2024-03-06T12:18:53;12.85;;;11.65;;
3677;SDS011;1855;50.934;6.958;2024-03-06T12:21:22;11.70;;;10.50;;
3677;SDS011;1855;50.934;6.958;2024-03-06T12:23:49;12.05;;;10.95;;
3677;SDS011;1855;50.934;6.958;2024-03-06T12:26:16;14.05;;;12.70;;
3677;SDS011;1855;50.934;6.958;2024-03-06T12:28:48;13.98;;;12.68;;
3677;SDS011;1855;50.934;6.958;2024-03-06T12:31:15;13.70;;;12.50;;
3677;SDS011;1855;50.934;6.958;2024-03-06T12:33:44;13.50;;;12.30;;
3677;SDS011;1855;50.934;6.958;2024-03-06T12:36:10;12.32;;;11.23;;
3677;SDS011;1855;50.934;6.958;2024-03-06T12:38:37;12.07;;;10.90;;
3677;SDS011;1855;50.934;6.958;2024-03-06T12:41:05;12.82;;;11.73;;
3677;SDS011;1855;50.934;6.958;2024-03-06T12:43:32;12.60;;;11.50;;
3677;SDS011;1855;50.934;6.958;2024-03-06T12:45:59;13.00;;;11.80;;
3677;SDS011;1855;50.934;6.958;2024-03-06T12:48:27;12.07;;;10.98;;
3677;SDS011;1855;50.934;6.958;2024-03-06T12:50:56;11.02;;;10.02;;
3677;SDS011;1855;50.934;6.958;2024-03-06T12:53:29;11.73;;;10.52;;
3677;SDS011;1855;50.934;6.958;2024-03-06T12:55:58;11.50;;;10.50;;
3677;SDS011;1855;50.934;6.958;2024-03-06T12:58:24;10.98;;;9.85;;
3677;SDS011;1855;50.934;6.958;2024-03-06T13:00:51;10.68;;;9.68;;
3677;SDS011;1855;50.934;6.958;2024-03-06T13:03:19;9.93;;;8.98;;
3677;SDS011;1855;50.934;6.958;2024-03-06T13:05:46;9.20;;;8.30;;
3677;SDS011;1855;50.934;6.958;2024-03-06T13:08:14;10.48;;;9.38;;
3677;SDS011;1855;50.934;6.958;2024-03-06T13:10:41;10.48;;;9.50;;
3677;SDS011;1855;50.934;6.958;2024-03-06T13:13:08;10.40;;;9.50;;
3677;SDS011;1855;50.934;6.958;2024-03-06T13:15:34;10.25;;;9.35;;
3677;SDS011;1855;50.934;6.958;2024-03-06T13:18:01;10.60;;;9.60;;
3677;SDS011;1855;50.934;6.958;2024-03-06T13:20:29;9.48;;;8.68;;
3677;SDS011;1855;50.934;6.958;2024-03-06T13:22:56;8.80;;;8.00;;
3677;SDS011;1855;50.934;6.958;2024-03-06T13:25:24;8.88;;;8.07;;
3677;SDS011;1855;50.934;6.958;2024-03-06T13:27:51;7.18;;;6.57;;
3677;SDS011;1855;50.934;6.958;2024-03-06T13:30:19;7.50;;;6.90;;
3677;SDS011;1855;50.934;6.958;2024-03-06T13:32:46;6.75;;;6.05;;
3677;SDS011;1855;50.934;6.958;2024-03-06T13:35:13;5.40;;;4.90;;
3677;SDS011;1855;50.934;6.958;2024-03-06T13:37:39;4.30;;;3.90;;
3677;SDS011;1855;50.934;6.958;2024-03-06T13:40:07;5.40;;;4.50;;
3677;SDS011;1855;50.934;6.958;2024-03-06T13:42:37;7.45;;;6.75;;
3677;SDS011;1855;50.934;6.958;2024-03-06T13:45:04;5.80;;;5.30;;
3677;SDS011;1855;50.934;6.958;2024-03-06T13:47:36;4.68;;;4.28;;
3677;SDS011;1855;50.934;6.958;2024-03-06T13:50:03;4.45;;;4.05;;
3677;SDS011;1855;50.934;6.958;2024-03-06T13:52:33;4.72;;;4.32;;
3677;SDS011;1855;50.934;6.958;2024-03-06T13:55:00;4.43;;;4.00;;
3677;SDS011;1855;50.934;6.958;2024-03-06T13:57:29;5.80;;;4.82;;
3677;SDS011;1855;50.934;6.958;2024-03-06T13:59:59;5.85;;;5.35;;
3677;SDS011;1855;50.934;6.958;2024-03-06T14:02:26;4.40;;;4.00;;
3677;SDS011;1855;50.934;6.958;2024-03-06T14:04:54;4.50;;;4.10;;
3677;SDS011;1855;50.934;6.958;2024-03-06T14:07:21;4.07;;;3.67;;
3677;SDS011;1855;50.934;6.958;2024-03-06T14:09:48;5.40;;;4.00;;
3677;SDS011;1855;50.934;6.958;2024-03-06T14:12:15;6.13;;;5.60;;
3677;SDS011;1855;50.934;6.958;2024-03-06T14:14:42;6.07;;;5.47;;
3677;SDS011;1855;50.934;6.958;2024-03-06T14:17:11;5.30;;;4.80;;
3677;SDS011;1855;50.934;6.958;2024-03-06T14:19:38;5.50;;;5.00;;
3677;SDS011;1855;50.934;6.958;2024-03-06T14:22:05;5.15;;;4.65;;
3677;SDS011;1855;50.934;6.958;2024-03-06T14:24:32;4.90;;;3.75;;
3677;SDS011;1855;50.934;6.958;2024-03-06T14:26:59;3.45;;;3.15;;
3677;SDS011;1855;50.934;6.958;2024-03-06T14:29:25;3.38;;;2.80;;
3677;SDS011;1855;50.934;6.958;2024-03-06T14:31:53;4.32;;;3.42;;
3677;SDS011;1855;50.934;6.958;2024-03-06T14:34:21;3.57;;;3.20;;
3677;SDS011;1855;50.934;6.958;2024-03-06T14:36:48;3.40;;;2.70;;
3677;SDS011;1855;50.934;6.958;2024-03-06T14:39:16;3.83;;;3.03;;
3677;SDS011;1855;50.934;6.958;2024-03-06T14:41:42;3.60;;;3.08;;
3677;SDS011;1855;50.934;6.958;2024-03-06T14:44:12;3.08;;;2.50;;
3677;SDS011;1855;50.934;6.958;2024-03-06T14:46:39;2.83;;;2.00;;
3677;SDS011;1855;50.934;6.958;2024-03-06T14:49:06;2.28;;;1.83;;
3677;SDS011;1855;50.934;6.958;2024-03-06T14:51:35;2.20;;;1.70;;
3677;SDS011;1855;50.934;6.958;2024-03-06T14:54:02;2.53;;;2.20;;
3677;SDS011;1855;50.934;6.958;2024-03-06T14:56:29;3.08;;;2.60;;
3677;SDS011;1855;50.934;6.958;2024-03-06T14:58:56;3.20;;;2.90;;
3677;SDS011;1855;50.934;6.958;2024-03-06T15:01:23;3.20;;;2.80;;
3677;SDS011;1855;50.934;6.958;2024-03-06T15:03:50;3.38;;;3.08;;
3677;SDS011;1855;50.934;6.958;2024-03-06T15:06:17;3.10;;;2.80;;
3677;SDS011;1855;50.934;6.958;2024-03-06T15:08:45;5.18;;;4.68;;
3677;SDS011;1855;50.934;6.958;2024-03-06T15:11:12;5.60;;;5.00;;
3677;SDS011;1855;50.934;6.958;2024-03-06T15:13:40;5.40;;;4.90;;
3677;SDS011;1855;50.934;6.958;2024-03-06T15:16:06;3.78;;;3.10;;
3677;SDS011;1855;50.934;6.958;2024-03-06T15:18:34;3.10;;;2.80;;
3677;SDS011;1855;50.934;6.958;2024-03-06T15:21:02;3.40;;;3.10;;
3677;SDS011;1855;50.934;6.958;2024-03-06T15:23:28;2.80;;;2.60;;
3677;SDS011;1855;50.934;6.958;2024-03-06T15:25:59;3.45;;;3.15;;
3677;SDS011;1855;50.934;6.958;2024-03-06T15:28:25;3.28;;;2.97;;
3677;SDS011;1855;50.934;6.958;2024-03-06T15:30:52;2.90;;;2.63;;
3677;SDS011;1855;50.934;6.958;2024-03-06T15:33:19;3.00;;;2.70;;
3677;SDS011;1855;50.934;6.958;2024-03-06T15:35:46;3.20;;;2.90;;
3677;SDS011;1855;50.934;6.958;2024-03-06T15:38:12;3.10;;;2.60;;
3677;SDS011;1855;50.934;6.958;2024-03-06T15:40:39;3.23;;;2.93;;
3677;SDS011;1855;50.934;6.958;2024-03-06T15:43:07;3.55;;;3.25;;
3677;SDS011;1855;50.934;6.958;2024-03-06T15:45:34;3.47;;;3.17;;
3677;SDS011;1855;50.934;6.958;2024-03-06T15:48:01;3.10;;;2.90;;
3677;SDS011;1855;50.934;6.958;2024-03-06T15:50:28;2.90;;;2.70;;
3677;SDS011;1855;50.934;6.958;2024-03-06T15:52:54;3.63;;;3.33;;
3677;SDS011;1855;50.934;6.958;2024-03-06T15:55:21;3.60;;;3.30;;
3677;SDS011;1855;50.934;6.958;2024-03-06T15:57:48;3.33;;;3.00;;
3677;SDS011;1855;50.934;6.958;2024-03-06T16:00:16;3.60;;;3.30;;
3677;SDS011;1855;50.934;6.958;2024-03-06T16:02:43;3.33;;;3.03;;
3677;SDS011;1855;50.934;6.958;2024-03-06T16:05:10;4.00;;;3.40;;
3677;SDS011;1855;50.934;6.958;2024-03-06T16:07:37;3.70;;;3.22;;
3677;SDS011;1855;50.934;6.958;2024-03-06T16:10:05;5.68;;;4.32;;
3677;SDS011;1855;50.934;6.958;2024-03-06T16:12:32;5.10;;;4.60;;
3677;SDS011;1855;50.934;6.958;2024-03-06T16:14:59;5.73;;;5.23;;
3677;SDS011;1855;50.934;6.958;2024-03-06T16:17:27;6.60;;;6.03;;
3677;SDS011;1855;50.934;6.958;2024-03-06T16:19:54;6.70;;;6.10;;
3677;SDS011;1855;50.934;6.958;2024-03-06T16:22:21;7.23;;;6.60;;
3677;SDS011;1855;50.934;6.958;2024-03-06T16:24:48;7.90;;;7.30;;
3677;SDS011;1855;50.934;6.958;2024-03-06T16:27:16;7.63;;;6.93;;
3677;SDS011;1855;50.934;6.958;2024-03-06T16:32:04;8.40;;;7.60;;
3677;SDS011;1855;50.934;6.958;2024-03-06T16:34:31;9.80;;;8.90;;
3677;SDS011;1855;50.934;6.958;2024-03-06T16:36:59;9.57;;;8.68;;
3677;SDS011;1855;50.934;6.958;2024-03-06T16:39:27;9.93;;;9.03;;
3677;SDS011;1855;50.934;6.958;2024-03-06T16:41:54;10.02;;;9.13;;
3677;SDS011;1855;50.934;6.958;2024-03-06T16:44:20;11.05;;;10.05;;
3677;SDS011;1855;50.934;6.958;2024-03-06T16:46:47;11.20;;;10.10;;
3677;SDS011;1855;50.934;6.958;2024-03-06T16:49:16;12.77;;;11.48;;
3677;SDS011;1855;50.934;6.958;2024-03-06T16:51:43;13.00;;;11.80;;
3677;SDS011;1855;50.934;6.958;2024-03-06T16:54:10;13.90;;;12.60;;
3677;SDS011;1855;50.934;6.958;2024-03-06T16:56:36;13.90;;;12.70;;
3677;SDS011;1855;50.934;6.958;2024-03-06T16:59:04;15.45;;;13.90;;
3677;SDS011;1855;50.934;6.958;2024-03-06T17:01:32;14.90;;;13.40;;
3677;SDS011;1855;50.934;6.958;2024-03-06T17:03:58;15.52;;;14.02;;
3677;SDS011;1855;50.934;6.958;2024-03-06T17:06:27;16.40;;;14.90;;
3677;SDS011;1855;50.934;6.958;2024-03-06T17:08:54;17.63;;;15.93;;
3677;SDS011;1855;50.934;6.958;2024-03-06T17:11:20;16.90;;;15.30;;
3677;SDS011;1855;50.934;6.958;2024-03-06T17:13:47;18.15;;;16.42;;
3677;SDS011;1855;50.934;6.958;2024-03-06T17:16:14;17.40;;;15.60;;
3677;SDS011;1855;50.934;6.958;2024-03-06T17:18:41;18.40;;;16.60;;
3677;SDS011;1855;50.934;6.958;2024-03-06T17:21:08;20.27;;;18.30;;
3677;SDS011;1855;50.934;6.958;2024-03-06T17:23:36;19.40;;;17.60;;
3677;SDS011;1855;50.934;6.958;2024-03-06T17:26:03;19.53;;;17.63;;
3677;SDS011;1855;50.934;6.958;2024-03-06T17:28:30;19.70;;;17.88;;
3677;SDS011;1855;50.934;6.958;2024-03-06T17:30:57;20.20;;;18.27;;
3677;SDS011;1855;50.934;6.958;2024-03-06T17:33:23;20.30;;;18.40;;
3677;SDS011;1855;50.934;6.958;2024-03-06T17:35:50;19.75;;;17.92;;
3677;SDS011;1855;50.934;6.958;2024-03-06T17:38:17;21.00;;;18.90;;
3677;SDS011;1855;50.934;6.958;2024-03-06T17:40:45;20.10;;;18.10;;
3677;SDS011;1855;50.934;6.958;2024-03-06T17:43:12;19.33;;;17.52;;
3677;SDS011;1855;50.934;6.958;2024-03-06T17:45:40;20.73;;;18.73;;
3677;SDS011;1855;50.934;6.958;2024-03-06T17:48:06;20.10;;;18.30;;
3677;SDS011;1855;50.934;6.958;2024-03-06T17:50:34;20.40;;;18.50;;
3677;SDS011;1855;50.934;6.958;2024-03-06T17:53:02;21.02;;;18.92;;
3677;SDS011;1855;50.934;6.958;2024-03-06T17:55:29;20.55;;;18.52;;
3677;SDS011;1855;50.934;6.958;2024-03-06T17:57:57;24.92;;;22.42;;
3677;SDS011;1855;50.934;6.958;2024-03-06T18:00:25;23.13;;;20.83;;
3677;SDS011;1855;50.934;6.958;2024-03-06T18:02:52;21.92;;;19.83;;
3677;SDS011;1855;50.934;6.958;2024-03-06T18:05:20;22.60;;;20.40;;
3677;SDS011;1855;50.934;6.958;2024-03-06T18:07:47;22.67;;;20.58;;
3677;SDS011;1855;50.934;6.958;2024-03-06T18:10:14;22.60;;;20.40;;
3677;SDS011;1855;50.934;6.958;2024-03-06T18:12:41;23.33;;;21.13;;
3677;SDS011;1855;50.934;6.958;2024-03-06T18:15:10;22.58;;;20.42;;
3677;SDS011;1855;50.934;6.958;2024-03-06T18:17:37;23.80;;;21.60;;
3677;SDS011;1855;50.934;6.958;2024-03-06T18:20:04;24.30;;;22.10;;
3677;SDS011;1855;50.934;6.958;2024-03-06T18:22:32;23.40;;;21.20;;
3677;SDS011;1855;50.934;6.958;2024-03-06T18:24:59;24.40;;;22.13;;
3677;SDS011;1855;50.934;6.958;2024-03-06T18:27:28;24.25;;;21.95;;
3677;SDS011;1855;50.934;6.958;2024-03-06T18:29:55;25.50;;;23.10;;
3677;SDS011;1855;50.934;6.958;2024-03-06T18:32:23;27.70;;;25.10;;
3677;SDS011;1855;50.934;6.958;2024-03-06T18:34:50;27.58;;;24.98;;
3677;SDS011;1855;50.934;6.958;2024-03-06T18:37:20;28.40;;;25.80;;
3677;SDS011;1855;50.934;6.958;2024-03-06T18:39:47;29.90;;;27.15;;
3677;SDS011;1855;50.934;6.958;2024-03-06T18:42:14;28.98;;;26.38;;
3677;SDS011;1855;50.934;6.958;2024-03-06T18:44:41;31.10;;;28.20;;
3677;SDS011;1855;50.934;6.958;2024-03-06T18:47:08;29.55;;;26.73;;
3677;SDS011;1855;50.934;6.958;2024-03-06T18:49:37;29.20;;;26.40;;
3677;SDS011;1855;50.934;6.958;2024-03-06T18:52:04;30.65;;;27.75;;
3677;SDS011;1855;50.934;6.958;2024-03-06T18:54:31;31.10;;;28.20;;
3677;SDS011;1855;50.934;6.958;2024-03-06T18:56:58;30.70;;;27.70;;
3677;SDS011;1855;50.934;6.958;2024-03-06T18:59:24;31.70;;;28.73;;
3677;SDS011;1855;50.934;6.958;2024-03-06T19:01:51;31.33;;;28.52;;
3677;SDS011;1855;50.934;6.958;2024-03-06T19:04:18;32.00;;;29.10;;
3677;SDS011;1855;50.934;6.958;2024-03-06T19:06:47;32.65;;;29.65;;
3677;SDS011;1855;50.934;6.958;2024-03-06T19:09:14;34.65;;;31.45;;
3677;SDS011;1855;50.934;6.958;2024-03-06T19:11:41;36.55;;;33.05;;
3677;SDS011;1855;50.934;6.958;2024-03-06T19:14:08;34.60;;;31.30;;
3677;SDS011;1855;50.934;6.958;2024-03-06T19:16:34;33.88;;;30.63;;
3677;SDS011;1855;50.934;6.958;2024-03-06T19:19:01;34.60;;;31.33;;
3677;SDS011;1855;50.934;6.958;2024-03-06T19:21:29;34.20;;;30.90;;
3677;SDS011;1855;50.934;6.958;2024-03-06T19:23:57;33.80;;;30.60;;
3677;SDS011;1855;50.934;6.958;2024-03-06T19:26:24;33.30;;;30.20;;
3677;SDS011;1855;50.934;6.958;2024-03-06T19:28:51;33.08;;;29.98;;
3677;SDS011;1855;50.934;6.958;2024-03-06T19:31:18;30.40;;;27.60;;
3677;SDS011;1855;50.934;6.958;2024-03-06T19:33:45;31.42;;;28.42;;
3677;SDS011;1855;50.934;6.958;2024-03-06T19:36:12;32.47;;;29.42;;
3677;SDS011;1855;50.934;6.958;2024-03-06T19:38:38;31.70;;;28.60;;
3677;SDS011;1855;50.934;6.958;2024-03-06T19:41:06;30.50;;;27.52;;
3677;SDS011;1855;50.934;6.958;2024-03-06T19:43:33;31.58;;;28.58;;
3677;SDS011;1855;50.934;6.958;2024-03-06T19:46:02;31.80;;;28.70;;
3677;SDS011;1855;50.934;6.958;2024-03-06T19:48:30;32.33;;;29.02;;
3677;SDS011;1855;50.934;6.958;2024-03-06T19:50:56;33.35;;;30.05;;
3677;SDS011;1855;50.934;6.958;2024-03-06T19:53:23;29.35;;;26.65;;
3677;SDS011;1855;50.934;6.958;2024-03-06T19:55:50;31.25;;;28.25;;
3677;SDS011;1855;50.934;6.958;2024-03-06T19:58:18;29.00;;;26.20;;
3677;SDS011;1855;50.934;6.958;2024-03-06T20:00:45;28.70;;;25.80;;
3677;SDS011;1855;50.934;6.958;2024-03-06T20:03:11;28.95;;;26.05;;
3677;SDS011;1855;50.934;6.958;2024-03-06T20:05:38;28.20;;;25.50;;
3677;SDS011;1855;50.934;6.958;2024-03-06T20:08:05;30.10;;;27.20;;
3677;SDS011;1855;50.934;6.958;2024-03-06T20:10:33;30.20;;;27.08;;
3677;SDS011;1855;50.934;6.958;2024-03-06T20:13:00;29.23;;;26.33;;
3677;SDS011;1855;50.934;6.958;2024-03-06T20:15:30;28.87;;;26.10;;
3677;SDS011;1855;50.934;6.958;2024-03-06T20:17:58;29.70;;;26.90;;
3677;SDS011;1855;50.934;6.958;2024-03-06T20:20:24;29.10;;;26.20;;
3677;SDS011;1855;50.934;6.958;2024-03-06T20:22:51;29.10;;;26.30;;
3677;SDS011;1855;50.934;6.958;2024-03-06T20:25:24;28.63;;;25.73;;
3677;SDS011;1855;50.934;6.958;2024-03-06T20:27:50;29.98;;;26.88;;
3677;SDS011;1855;50.934;6.958;2024-03-06T20:30:17;28.10;;;25.40;;
3677;SDS011;1855;50.934;6.958;2024-03-06T20:32:47;30.67;;;27.67;;
3677;SDS011;1855;50.934;6.958;2024-03-06T20:35:14;27.55;;;24.65;;
3677;SDS011;1855;50.934;6.958;2024-03-06T20:37:45;28.57;;;25.77;;
3677;SDS011;1855;50.934;6.958;2024-03-06T20:40:12;29.48;;;26.58;;